sensor_id;sensor_type;location;lat;lon;timestamp;pressure;altitude;pressure_sealevel;temperature;humidity
34584;BME280;53696;52.738;4.752;2023-05-02T00:01:27;102098.00;;;19.35;62.19
34584;BME280;53696;52.738;4.752;2023-05-02T00:03:54;102099.84;;;19.33;62.09
34584;BME280;53696;52.738;4.752;2023-05-02T00:06:22;102092.69;;;19.32;62.02
34584;BME280;53696;52.738;4.752;2023-05-02T00:08:50;102098.13;;;19.31;62.30
34584;BME280;53696;52.738;4.752;2023-05-02T00:11:18;102102.63;;;19.29;62.44
34584;BME280;53696;52.738;4.752;2023-05-02T00:13:46;102109.81;;;19.26;62.00
34584;BME280;53696;52.738;4.752;2023-05-02T00:16:14;102115.22;;;19.25;62.14
34584;BME280;53696;52.738;4.752;2023-05-02T00:18:43;102109.88;;;19.25;62.32
34584;BME280;53696;52.738;4.752;2023-05-02T00:21:10;102115.28;;;19.23;62.05
34584;BME280;53696;52.738;4.752;2023-05-02T00:23:39;102120.69;;;19.22;62.12
34584;BME280;53696;52.738;4.752;2023-05-02T00:26:07;102126.06;;;19.20;61.87
34584;BME280;53696;52.738;4.752;2023-05-02T00:28:35;102134.16;;;19.19;62.10
34584;BME280;53696;52.738;4.752;2023-05-02T00:31:03;102127.94;;;19.17;62.01
34584;BME280;53696;52.738;4.752;2023-05-02T00:33:31;102144.03;;;19.17;62.06
34584;BME280;53696;52.738;4.752;2023-05-02T00:36:00;102142.25;;;19.16;62.19
34584;BME280;53696;52.738;4.752;2023-05-02T00:38:27;102135.13;;;19.15;61.96
34584;BME280;53696;52.738;4.752;2023-05-02T00:40:55;102130.69;;;19.14;61.98
34584;BME280;53696;52.738;4.752;2023-05-02T00:43:23;102129.78;;;19.13;61.93
34584;BME280;53696;52.738;4.752;2023-05-02T00:45:51;102140.56;;;19.11;61.91
34584;BME280;53696;52.738;4.752;2023-05-02T00:48:19;102130.75;;;19.10;62.08
34584;BME280;53696;52.738;4.752;2023-05-02T00:50:47;102124.53;;;19.08;61.83
34584;BME280;53696;52.738;4.752;2023-05-02T00:53:16;102123.72;;;19.06;61.85
34584;BME280;53696;52.738;4.752;2023-05-02T00:55:44;102126.38;;;19.06;61.69
34584;BME280;53696;52.738;4.752;2023-05-02T00:58:13;102126.41;;;19.05;61.84
34584;BME280;53696;52.738;4.752;2023-05-02T01:00:53;102136.25;;;19.04;61.99
34584;BME280;53696;52.738;4.752;2023-05-02T01:03:31;102135.41;;;19.02;61.95
34584;BME280;53696;52.738;4.752;2023-05-02T01:06:10;102141.69;;;19.01;61.82
34584;BME280;53696;52.738;4.752;2023-05-02T01:08:49;102145.25;;;19.00;61.88
34584;BME280;53696;52.738;4.752;2023-05-02T01:11:27;102152.44;;;19.00;61.92
34584;BME280;53696;52.738;4.752;2023-05-02T01:14:00;102150.72;;;18.97;61.70
34584;BME280;53696;52.738;4.752;2023-05-02T01:16:33;102157.00;;;18.96;61.77
34584;BME280;53696;52.738;4.752;2023-05-02T01:19:08;102163.25;;;18.95;61.93
34584;BME280;53696;52.738;4.752;2023-05-02T01:21:39;102165.94;;;18.95;61.63
34584;BME280;53696;52.738;4.752;2023-05-02T01:24:14;102160.63;;;18.93;61.80
34584;BME280;53696;52.738;4.752;2023-05-02T01:26:58;102166.00;;;18.92;61.75
34584;BME280;53696;52.738;4.752;2023-05-02T01:29:30;102162.44;;;18.91;61.83
34584;BME280;53696;52.738;4.752;2023-05-02T01:32:00;102168.69;;;18.92;61.48
34584;BME280;53696;52.738;4.752;2023-05-02T01:34:30;102167.84;;;18.90;61.90
34584;BME280;53696;52.738;4.752;2023-05-02T01:37:00;102174.13;;;18.89;61.70
34584;BME280;53696;52.738;4.752;2023-05-02T01:39:29;102173.22;;;18.88;61.67
34584;BME280;53696;52.738;4.752;2023-05-02T01:41:58;102178.63;;;18.87;61.64
34584;BME280;53696;52.738;4.752;2023-05-02T01:44:31;102180.47;;;18.83;61.57
34584;BME280;53696;52.738;4.752;2023-05-02T01:47:03;102183.25;;;18.78;61.28
34584;BME280;53696;52.738;4.752;2023-05-02T01:49:32;102190.44;;;18.76;61.25
34584;BME280;53696;52.738;4.752;2023-05-02T01:52:03;102192.28;;;18.74;61.42
34584;BME280;53696;52.738;4.752;2023-05-02T01:54:32;102195.91;;;18.72;61.58
34584;BME280;53696;52.738;4.752;2023-05-02T01:57:04;102200.41;;;18.70;61.25
34584;BME280;53696;52.738;4.752;2023-05-02T01:59:36;102209.41;;;18.67;61.49
34584;BME280;53696;52.738;4.752;2023-05-02T02:02:07;102214.75;;;18.66;61.51
34584;BME280;53696;52.738;4.752;2023-05-02T02:04:36;102210.34;;;18.63;61.37
34584;BME280;53696;52.738;4.752;2023-05-02T02:07:07;102215.75;;;18.61;61.44
34584;BME280;53696;52.738;4.752;2023-05-02T02:09:36;102216.66;;;18.60;61.09
34584;BME280;53696;52.738;4.752;2023-05-02T02:12:06;102214.88;;;18.59;61.53
34584;BME280;53696;52.738;4.752;2023-05-02T02:14:38;102214.91;;;18.58;61.77
34584;BME280;53696;52.738;4.752;2023-05-02T02:17:12;102219.41;;;18.56;61.14
34584;BME280;53696;52.738;4.752;2023-05-02T02:19:41;102234.63;;;18.55;61.40
34584;BME280;53696;52.738;4.752;2023-05-02T02:22:12;102231.91;;;18.54;61.59
34584;BME280;53696;52.738;4.752;2023-05-02T02:24:40;102235.53;;;18.53;61.52
34584;BME280;53696;52.738;4.752;2023-05-02T02:27:10;102236.44;;;18.52;61.46
34584;BME280;53696;52.738;4.752;2023-05-02T02:29:39;102240.03;;;18.51;61.03
34584;BME280;53696;52.738;4.752;2023-05-02T02:32:07;102242.69;;;18.51;61.44
34584;BME280;53696;52.738;4.752;2023-05-02T02:34:35;102240.94;;;18.50;61.13
34584;BME280;53696;52.738;4.752;2023-05-02T02:37:06;102250.78;;;18.49;61.11
34584;BME280;53696;52.738;4.752;2023-05-02T02:39:44;102259.72;;;18.48;61.11
34584;BME280;53696;52.738;4.752;2023-05-02T02:42:20;102263.31;;;18.47;61.46
34584;BME280;53696;52.738;4.752;2023-05-02T02:44:55;102263.31;;;18.47;61.18
34584;BME280;53696;52.738;4.752;2023-05-02T02:47:31;102269.59;;;18.44;61.13
34584;BME280;53696;52.738;4.752;2023-05-02T02:50:13;102272.28;;;18.43;61.22
34584;BME280;53696;52.738;4.752;2023-05-02T02:52:49;102270.53;;;18.42;61.23
34584;BME280;53696;52.738;4.752;2023-05-02T02:55:26;102277.69;;;18.41;61.19
34584;BME280;53696;52.738;4.752;2023-05-02T02:58:00;102282.19;;;18.41;61.08
34584;BME280;53696;52.738;4.752;2023-05-02T03:00:32;102290.22;;;18.39;61.37
34584;BME280;53696;52.738;4.752;2023-05-02T03:03:01;102286.66;;;18.39;60.99
34584;BME280;53696;52.738;4.752;2023-05-02T03:05:29;102290.28;;;18.36;60.93
34584;BME280;53696;52.738;4.752;2023-05-02T03:07:59;102297.41;;;18.36;60.91
34584;BME280;53696;52.738;4.752;2023-05-02T03:10:27;102301.91;;;18.35;60.94
34584;BME280;53696;52.738;4.752;2023-05-02T03:12:55;102301.94;;;18.34;61.00
34584;BME280;53696;52.738;4.752;2023-05-02T03:15:38;102311.75;;;18.33;61.10
34584;BME280;53696;52.738;4.752;2023-05-02T03:18:13;102316.25;;;18.31;61.10
34584;BME280;53696;52.738;4.752;2023-05-02T03:20:41;102319.84;;;18.30;60.80
34584;BME280;53696;52.738;4.752;2023-05-02T03:23:09;102318.94;;;18.29;61.02
34584;BME280;53696;52.738;4.752;2023-05-02T03:25:37;102328.78;;;18.27;60.96
34584;BME280;53696;52.738;4.752;2023-05-02T03:28:05;102327.91;;;18.27;60.83
34584;BME280;53696;52.738;4.752;2023-05-02T03:30:34;102332.38;;;18.28;60.96
34584;BME280;53696;52.738;4.752;2023-05-02T03:33:06;102332.38;;;18.28;60.68
34584;BME280;53696;52.738;4.752;2023-05-02T03:35:34;102332.38;;;18.26;60.50
34584;BME280;53696;52.738;4.752;2023-05-02T03:38:02;102332.41;;;18.25;61.03
34584;BME280;53696;52.738;4.752;2023-05-02T03:40:29;102336.00;;;18.25;60.90
34584;BME280;53696;52.738;4.752;2023-05-02T03:42:57;102343.13;;;18.25;60.85
34584;BME280;53696;52.738;4.752;2023-05-02T03:45:25;102335.13;;;18.23;60.57
34584;BME280;53696;52.738;4.752;2023-05-02T03:47:54;102344.03;;;18.24;60.68
34584;BME280;53696;52.738;4.752;2023-05-02T03:50:22;102346.69;;;18.24;60.82
34584;BME280;53696;52.738;4.752;2023-05-02T03:52:50;102348.50;;;18.23;60.65
34584;BME280;53696;52.738;4.752;2023-05-02T03:55:18;102349.44;;;18.21;60.39
34584;BME280;53696;52.738;4.752;2023-05-02T03:57:46;102353.91;;;18.20;60.59
34584;BME280;53696;52.738;4.752;2023-05-02T04:00:14;102361.97;;;18.19;60.37
34584;BME280;53696;52.738;4.752;2023-05-02T04:02:42;102364.66;;;18.19;60.58
34584;BME280;53696;52.738;4.752;2023-05-02T04:05:12;102370.03;;;18.17;60.45
34584;BME280;53696;52.738;4.752;2023-05-02T04:07:39;102369.13;;;18.16;60.42
34584;BME280;53696;52.738;4.752;2023-05-02T04:10:08;102372.75;;;18.14;60.35
34584;BME280;53696;52.738;4.752;2023-05-02T04:12:41;102376.31;;;18.13;60.32
34584;BME280;53696;52.738;4.752;2023-05-02T04:15:10;102387.03;;;18.13;60.25
34584;BME280;53696;52.738;4.752;2023-05-02T04:17:38;102380.81;;;18.12;60.24
34584;BME280;53696;52.738;4.752;2023-05-02T04:20:07;102387.06;;;18.11;60.31
34584;BME280;53696;52.738;4.752;2023-05-02T04:22:36;102386.19;;;18.11;60.17
34584;BME280;53696;52.738;4.752;2023-05-02T04:25:05;102389.75;;;18.11;60.40
34584;BME280;53696;52.738;4.752;2023-05-02T04:27:33;102392.41;;;18.11;60.34
34584;BME280;53696;52.738;4.752;2023-05-02T04:30:00;102398.69;;;18.10;60.18
34584;BME280;53696;52.738;4.752;2023-05-02T04:32:29;102398.69;;;18.10;60.05
34584;BME280;53696;52.738;4.752;2023-05-02T04:34:56;102402.25;;;18.09;59.92
34584;BME280;53696;52.738;4.752;2023-05-02T04:37:24;102406.75;;;18.09;60.18
34584;BME280;53696;52.738;4.752;2023-05-02T04:39:53;102414.78;;;18.07;60.09
34584;BME280;53696;52.738;4.752;2023-05-02T04:42:22;102423.75;;;18.06;59.79
34584;BME280;53696;52.738;4.752;2023-05-02T04:44:50;102416.59;;;18.05;59.92
34584;BME280;53696;52.738;4.752;2023-05-02T04:47:18;102426.41;;;18.05;60.27
34584;BME280;53696;52.738;4.752;2023-05-02T04:49:45;102430.00;;;18.04;60.10
34584;BME280;53696;52.738;4.752;2023-05-02T04:52:13;102438.97;;;18.03;60.16
34584;BME280;53696;52.738;4.752;2023-05-02T04:54:41;102438.06;;;18.02;60.07
34584;BME280;53696;52.738;4.752;2023-05-02T04:57:10;102442.53;;;18.02;59.86
34584;BME280;53696;52.738;4.752;2023-05-02T04:59:37;102447.88;;;18.02;59.89
34584;BME280;53696;52.738;4.752;2023-05-02T05:02:05;102451.47;;;18.00;59.93
34584;BME280;53696;52.738;4.752;2023-05-02T05:04:33;102448.81;;;17.99;59.85
34584;BME280;53696;52.738;4.752;2023-05-02T05:07:01;102447.88;;;18.00;60.04
34584;BME280;53696;52.738;4.752;2023-05-02T05:09:29;102455.94;;;17.98;59.63
34584;BME280;53696;52.738;4.752;2023-05-02T05:11:57;102445.25;;;17.98;60.04
34584;BME280;53696;52.738;4.752;2023-05-02T05:14:26;102457.75;;;17.98;59.95
34584;BME280;53696;52.738;4.752;2023-05-02T05:16:54;102453.28;;;17.97;59.98
34584;BME280;53696;52.738;4.752;2023-05-02T05:19:22;102458.66;;;17.97;59.69
34584;BME280;53696;52.738;4.752;2023-05-02T05:21:49;102456.91;;;17.94;59.78
34584;BME280;53696;52.738;4.752;2023-05-02T05:24:17;102463.13;;;17.95;59.58
34584;BME280;53696;52.738;4.752;2023-05-02T05:26:44;102461.34;;;17.94;59.64
34584;BME280;53696;52.738;4.752;2023-05-02T05:29:12;102465.81;;;17.95;59.77
34584;BME280;53696;52.738;4.752;2023-05-02T05:31:41;102472.97;;;17.94;59.65
34584;BME280;53696;52.738;4.752;2023-05-02T05:34:09;102470.28;;;17.93;59.76
34584;BME280;53696;52.738;4.752;2023-05-02T05:36:38;102469.38;;;17.94;59.72
34584;BME280;53696;52.738;4.752;2023-05-02T05:39:06;102472.06;;;17.94;59.63
34584;BME280;53696;52.738;4.752;2023-05-02T05:41:34;102480.06;;;17.97;59.33
34584;BME280;53696;52.738;4.752;2023-05-02T05:44:03;102484.47;;;18.01;59.65
34584;BME280;53696;52.738;4.752;2023-05-02T05:46:31;102491.59;;;18.02;59.49
34584;BME280;53696;52.738;4.752;2023-05-02T05:49:00;102493.34;;;18.06;59.28
34584;BME280;53696;52.738;4.752;2023-05-02T05:51:28;102498.66;;;18.09;59.41
34584;BME280;53696;52.738;4.752;2023-05-02T05:53:56;102511.16;;;18.10;59.39
34584;BME280;53696;52.738;4.752;2023-05-02T05:56:24;102513.81;;;18.10;59.44
34584;BME280;53696;52.738;4.752;2023-05-02T05:58:52;102518.28;;;18.11;59.49
34584;BME280;53696;52.738;4.752;2023-05-02T06:01:20;102523.63;;;18.11;59.26
34584;BME280;53696;52.738;4.752;2023-05-02T06:03:48;102529.84;;;18.12;59.46
34584;BME280;53696;52.738;4.752;2023-05-02T06:06:17;102526.28;;;18.14;59.25
34584;BME280;53696;52.738;4.752;2023-05-02T06:08:45;102528.03;;;18.17;59.30
34584;BME280;53696;52.738;4.752;2023-05-02T06:11:12;102534.25;;;18.21;59.44
34584;BME280;53696;52.738;4.752;2023-05-02T06:13:40;102535.09;;;18.23;59.23
34584;BME280;53696;52.738;4.752;2023-05-02T06:16:07;102540.41;;;18.26;59.36
34584;BME280;53696;52.738;4.752;2023-05-02T06:18:35;102550.25;;;18.25;59.13
34584;BME280;53696;52.738;4.752;2023-05-02T06:21:03;102553.81;;;18.26;59.35
34584;BME280;53696;52.738;4.752;2023-05-02T06:23:32;102551.13;;;18.26;58.88
34584;BME280;53696;52.738;4.752;2023-05-02T06:26:02;102556.50;;;18.26;59.15
34584;BME280;53696;52.738;4.752;2023-05-02T06:28:30;102563.66;;;18.25;58.97
34584;BME280;53696;52.738;4.752;2023-05-02T06:30:58;102560.06;;;18.25;59.08
34584;BME280;53696;52.738;4.752;2023-05-02T06:33:26;102569.91;;;18.24;59.27
34584;BME280;53696;52.738;4.752;2023-05-02T06:35:54;102579.72;;;18.24;59.04
34584;BME280;53696;52.738;4.752;2023-05-02T06:38:25;102585.06;;;18.24;58.90
34584;BME280;53696;52.738;4.752;2023-05-02T06:40:54;102585.97;;;18.23;59.09
34584;BME280;53696;52.738;4.752;2023-05-02T06:43:22;102586.00;;;18.21;58.90
34584;BME280;53696;52.738;4.752;2023-05-02T06:45:52;102594.94;;;18.22;59.16
34584;BME280;53696;52.738;4.752;2023-05-02T06:48:20;102596.69;;;18.23;59.09
34584;BME280;53696;52.738;4.752;2023-05-02T06:50:48;102598.50;;;18.22;59.12
34584;BME280;53696;52.738;4.752;2023-05-02T06:53:15;102596.69;;;18.23;58.85
34584;BME280;53696;52.738;4.752;2023-05-02T06:55:43;102599.38;;;18.24;58.94
34584;BME280;53696;52.738;4.752;2023-05-02T06:58:13;102602.03;;;18.26;59.01
34584;BME280;53696;52.738;4.752;2023-05-02T07:00:41;102603.81;;;18.27;58.89
34584;BME280;53696;52.738;4.752;2023-05-02T07:03:09;102609.16;;;18.27;59.15
34584;BME280;53696;52.738;4.752;2023-05-02T07:05:38;102606.47;;;18.27;59.15
34584;BME280;53696;52.738;4.752;2023-05-02T07:08:06;102615.41;;;18.27;58.76
34584;BME280;53696;52.738;4.752;2023-05-02T07:10:34;102613.63;;;18.28;58.98
34584;BME280;53696;52.738;4.752;2023-05-02T07:13:02;102622.53;;;18.28;59.23
34584;BME280;53696;52.738;4.752;2023-05-02T07:15:31;102623.44;;;18.29;59.05
34584;BME280;53696;52.738;4.752;2023-05-02T07:17:58;102616.25;;;18.31;58.89
34584;BME280;53696;52.738;4.752;2023-05-02T07:20:26;102626.97;;;18.32;59.06
34584;BME280;53696;52.738;4.752;2023-05-02T07:22:54;102634.97;;;18.34;58.85
34584;BME280;53696;52.738;4.752;2023-05-02T07:25:22;102625.16;;;18.33;59.18
34584;BME280;53696;52.738;4.752;2023-05-02T07:27:50;102629.63;;;18.34;58.89
34584;BME280;53696;52.738;4.752;2023-05-02T07:30:17;102634.94;;;18.36;59.01
34584;BME280;53696;52.738;4.752;2023-05-02T07:32:46;102634.06;;;18.35;59.04
34584;BME280;53696;52.738;4.752;2023-05-02T07:35:14;102635.84;;;18.35;58.97
34584;BME280;53696;52.738;4.752;2023-05-02T07:37:42;102641.22;;;18.35;58.78
34584;BME280;53696;52.738;4.752;2023-05-02T07:40:10;102643.00;;;18.34;58.84
34584;BME280;53696;52.738;4.752;2023-05-02T07:42:38;102640.34;;;18.34;58.75
34584;BME280;53696;52.738;4.752;2023-05-02T07:45:08;102650.16;;;18.35;58.54
34584;BME280;53696;52.738;4.752;2023-05-02T07:47:35;102643.00;;;18.34;58.55
34584;BME280;53696;52.738;4.752;2023-05-02T07:50:05;102651.06;;;18.34;58.68
34584;BME280;53696;52.738;4.752;2023-05-02T07:52:34;102649.28;;;18.33;58.56
34584;BME280;53696;52.738;4.752;2023-05-02T07:55:02;102656.44;;;18.32;58.33
34584;BME280;53696;52.738;4.752;2023-05-02T07:57:30;102660.88;;;18.32;58.46
34584;BME280;53696;52.738;4.752;2023-05-02T07:59:58;102666.25;;;18.32;58.63
34584;BME280;53696;52.738;4.752;2023-05-02T08:02:26;102664.47;;;18.31;58.33
34584;BME280;53696;52.738;4.752;2023-05-02T08:04:54;102669.81;;;18.31;58.63
34584;BME280;53696;52.738;4.752;2023-05-02T08:07:23;102679.66;;;18.30;58.39
34584;BME280;53696;52.738;4.752;2023-05-02T08:09:51;102668.97;;;18.27;58.19
34584;BME280;53696;52.738;4.752;2023-05-02T08:12:19;102673.44;;;18.30;58.13
34584;BME280;53696;52.738;4.752;2023-05-02T08:14:46;102677.88;;;18.32;58.31
34584;BME280;53696;52.738;4.752;2023-05-02T08:17:14;102680.53;;;18.34;57.97
34584;BME280;53696;52.738;4.752;2023-05-02T08:19:42;102685.84;;;18.36;57.92
34584;BME280;53696;52.738;4.752;2023-05-02T08:22:09;102677.81;;;18.37;58.44
34584;BME280;53696;52.738;4.752;2023-05-02T08:24:38;102678.66;;;18.39;58.35
34584;BME280;53696;52.738;4.752;2023-05-02T08:27:06;102681.34;;;18.41;58.58
34584;BME280;53696;52.738;4.752;2023-05-02T08:29:34;102689.38;;;18.42;58.82
34584;BME280;53696;52.738;4.752;2023-05-02T08:32:02;102692.03;;;18.44;58.75
34584;BME280;53696;52.738;4.752;2023-05-02T08:34:30;102692.94;;;18.44;58.56
34584;BME280;53696;52.738;4.752;2023-05-02T08:36:59;102700.97;;;18.44;58.88
34584;BME280;53696;52.738;4.752;2023-05-02T08:39:26;102699.16;;;18.45;58.67
34584;BME280;53696;52.738;4.752;2023-05-02T08:41:56;102699.19;;;18.42;58.97
34584;BME280;53696;52.738;4.752;2023-05-02T08:44:23;102696.50;;;18.43;58.82
34584;BME280;53696;52.738;4.752;2023-05-02T08:46:52;102705.41;;;18.47;59.25
34584;BME280;53696;52.738;4.752;2023-05-02T08:49:21;102705.41;;;18.47;59.10
34584;BME280;53696;52.738;4.752;2023-05-02T08:51:50;102708.94;;;18.47;59.29
34584;BME280;53696;52.738;4.752;2023-05-02T08:54:18;102721.44;;;18.48;59.04
34584;BME280;53696;52.738;4.752;2023-05-02T08:56:47;102725.94;;;18.48;59.04
34584;BME280;53696;52.738;4.752;2023-05-02T08:59:16;102724.13;;;18.48;59.04
34584;BME280;53696;52.738;4.752;2023-05-02T09:01:46;102730.38;;;18.51;59.15
34584;BME280;53696;52.738;4.752;2023-05-02T09:04:17;102726.78;;;18.52;59.59
34584;BME280;53696;52.738;4.752;2023-05-02T09:06:46;102734.81;;;18.53;59.51
34584;BME280;53696;52.738;4.752;2023-05-02T09:09:13;102726.75;;;18.55;59.65
34584;BME280;53696;52.738;4.752;2023-05-02T09:11:45;102725.88;;;18.54;59.69
34584;BME280;53696;52.738;4.752;2023-05-02T09:14:14;102725.88;;;18.56;59.53
34584;BME280;53696;52.738;4.752;2023-05-02T09:16:43;102724.09;;;18.56;59.48
34584;BME280;53696;52.738;4.752;2023-05-02T09:19:22;102735.69;;;18.57;59.52
34584;BME280;53696;52.738;4.752;2023-05-02T09:21:51;102735.69;;;18.57;59.63
34584;BME280;53696;52.738;4.752;2023-05-02T09:24:21;102739.28;;;18.53;59.58
34584;BME280;53696;52.738;4.752;2023-05-02T09:26:56;102736.63;;;18.53;59.52
34584;BME280;53696;52.738;4.752;2023-05-02T09:29:26;102738.38;;;18.54;59.27
34584;BME280;53696;52.738;4.752;2023-05-02T09:31:55;102736.59;;;18.54;59.85
34584;BME280;53696;52.738;4.752;2023-05-02T09:34:23;102737.50;;;18.56;59.55
34584;BME280;53696;52.738;4.752;2023-05-02T09:36:51;102741.97;;;18.56;59.59
34584;BME280;53696;52.738;4.752;2023-05-02T09:39:21;102748.19;;;18.58;59.52
34584;BME280;53696;52.738;4.752;2023-05-02T09:41:51;102764.28;;;18.58;59.59
34584;BME280;53696;52.738;4.752;2023-05-02T09:44:22;102758.00;;;18.57;59.45
34584;BME280;53696;52.738;4.752;2023-05-02T09:46:52;102763.38;;;18.59;59.48
34584;BME280;53696;52.738;4.752;2023-05-02T09:49:38;102760.66;;;18.60;59.28
34584;BME280;53696;52.738;4.752;2023-05-02T09:52:10;102758.88;;;18.61;59.38
34584;BME280;53696;52.738;4.752;2023-05-02T09:54:38;102767.84;;;18.60;59.45
34584;BME280;53696;52.738;4.752;2023-05-02T09:57:06;102763.34;;;18.60;59.47
34584;BME280;53696;52.738;4.752;2023-05-02T09:59:37;102759.78;;;18.61;59.27
34584;BME280;53696;52.738;4.752;2023-05-02T10:02:06;102757.03;;;18.64;59.04
34584;BME280;53696;52.738;4.752;2023-05-02T10:04:37;102761.50;;;18.67;59.19
34584;BME280;53696;52.738;4.752;2023-05-02T10:07:06;102766.88;;;18.67;59.55
34584;BME280;53696;52.738;4.752;2023-05-02T10:09:38;102766.84;;;18.69;59.61
34584;BME280;53696;52.738;4.752;2023-05-02T10:12:13;102772.22;;;18.69;59.56
34584;BME280;53696;52.738;4.752;2023-05-02T10:14:46;102772.22;;;18.69;59.74
34584;BME280;53696;52.738;4.752;2023-05-02T10:17:21;102783.78;;;18.72;59.67
34584;BME280;53696;52.738;4.752;2023-05-02T10:19:56;102786.53;;;18.64;59.32
34584;BME280;53696;52.738;4.752;2023-05-02T10:22:24;102782.06;;;18.65;59.40
34584;BME280;53696;52.738;4.752;2023-05-02T10:24:53;102792.78;;;18.65;59.01
34584;BME280;53696;52.738;4.752;2023-05-02T10:27:21;102789.22;;;18.66;59.16
34584;BME280;53696;52.738;4.752;2023-05-02T10:29:50;102785.63;;;18.67;59.10
34584;BME280;53696;52.738;4.752;2023-05-02T10:32:18;102787.41;;;18.68;59.10
34584;BME280;53696;52.738;4.752;2023-05-02T10:34:47;102783.81;;;18.69;58.92
34584;BME280;53696;52.738;4.752;2023-05-02T10:37:18;102785.59;;;18.70;58.96
34584;BME280;53696;52.738;4.752;2023-05-02T10:39:46;102786.47;;;18.72;58.96
34584;BME280;53696;52.738;4.752;2023-05-02T10:42:14;102787.38;;;18.71;59.06
34584;BME280;53696;52.738;4.752;2023-05-02T10:44:43;102789.13;;;18.74;59.11
34584;BME280;53696;52.738;4.752;2023-05-02T10:47:20;102788.22;;;18.75;59.32
34584;BME280;53696;52.738;4.752;2023-05-02T10:49:49;102789.13;;;18.75;59.58
34584;BME280;53696;52.738;4.752;2023-05-02T10:52:26;102795.34;;;18.77;59.92
34584;BME280;53696;52.738;4.752;2023-05-02T10:55:15;102787.31;;;18.77;60.02
34584;BME280;53696;52.738;4.752;2023-05-02T10:58:20;102794.41;;;18.80;60.08
34584;BME280;53696;52.738;4.752;2023-05-02T11:00:51;102800.69;;;18.81;60.22
34584;BME280;53696;52.738;4.752;2023-05-02T11:03:53;102807.81;;;18.82;60.20
34584;BME280;53696;52.738;4.752;2023-05-02T11:06:22;102807.81;;;18.83;60.47
34584;BME280;53696;52.738;4.752;2023-05-02T11:08:51;102805.09;;;18.85;60.22
34584;BME280;53696;52.738;4.752;2023-05-02T11:11:39;102802.41;;;18.86;60.29
34584;BME280;53696;52.738;4.752;2023-05-02T11:14:07;102810.47;;;18.86;60.71
34584;BME280;53696;52.738;4.752;2023-05-02T11:17:09;102799.72;;;18.88;60.56
34584;BME280;53696;52.738;4.752;2023-05-02T11:22:57;102809.56;;;18.86;60.74
34584;BME280;53696;52.738;4.752;2023-05-02T11:25:31;102794.34;;;18.88;60.69
34584;BME280;53696;52.738;4.752;2023-05-02T11:27:59;102805.97;;;18.90;60.31
34584;BME280;53696;52.738;4.752;2023-05-02T11:30:41;102813.97;;;18.91;60.71
34584;BME280;53696;52.738;4.752;2023-05-02T11:33:16;102816.69;;;18.88;60.49
34584;BME280;53696;52.738;4.752;2023-05-02T11:35:46;102814.03;;;18.87;60.05
34584;BME280;53696;52.738;4.752;2023-05-02T11:38:16;102824.78;;;18.84;59.84
34584;BME280;53696;52.738;4.752;2023-05-02T11:40:56;102824.78;;;18.84;59.49
34584;BME280;53696;52.738;4.752;2023-05-02T11:43:25;102825.69;;;18.83;59.52
34584;BME280;53696;52.738;4.752;2023-05-02T11:45:57;102830.19;;;18.81;59.44
34584;BME280;53696;52.738;4.752;2023-05-02T11:48:26;102833.78;;;18.76;58.84
34584;BME280;53696;52.738;4.752;2023-05-02T11:50:55;102831.19;;;18.67;57.73
34584;BME280;53696;52.738;4.752;2023-05-02T11:53:25;102832.97;;;18.68;56.72
34584;BME280;53696;52.738;4.752;2023-05-02T11:55:57;102839.19;;;18.70;56.95
34584;BME280;53696;52.738;4.752;2023-05-02T11:58:26;102845.47;;;18.71;57.42
34584;BME280;53696;52.738;4.752;2023-05-02T12:00:55;102846.38;;;18.70;57.56
34584;BME280;53696;52.738;4.752;2023-05-02T12:03:26;102851.75;;;18.68;57.82
34584;BME280;53696;52.738;4.752;2023-05-02T12:05:55;102851.75;;;18.68;57.60
34584;BME280;53696;52.738;4.752;2023-05-02T12:08:26;102855.31;;;18.67;57.86
34584;BME280;53696;52.738;4.752;2023-05-02T12:10:56;102859.78;;;18.67;57.67
34584;BME280;53696;52.738;4.752;2023-05-02T12:13:25;102859.81;;;18.65;57.70
34584;BME280;53696;52.738;4.752;2023-05-02T12:15:53;102861.59;;;18.66;57.67
34584;BME280;53696;52.738;4.752;2023-05-02T12:18:23;102859.78;;;18.68;57.92
34584;BME280;53696;52.738;4.752;2023-05-02T12:20:54;102869.59;;;18.69;57.88
34584;BME280;53696;52.738;4.752;2023-05-02T12:23:23;102867.81;;;18.70;57.79
34584;BME280;53696;52.738;4.752;2023-05-02T12:25:52;102873.16;;;18.70;57.95
34584;BME280;53696;52.738;4.752;2023-05-02T12:28:21;102868.69;;;18.72;58.00
34584;BME280;53696;52.738;4.752;2023-05-02T12:30:50;102870.44;;;18.73;58.01
34584;BME280;53696;52.738;4.752;2023-05-02T12:33:18;102870.44;;;18.74;58.07
34584;BME280;53696;52.738;4.752;2023-05-02T12:35:46;102874.91;;;18.75;57.91
34584;BME280;53696;52.738;4.752;2023-05-02T12:38:15;102873.97;;;18.76;58.18
34584;BME280;53696;52.738;4.752;2023-05-02T12:40:48;102885.63;;;18.77;58.05
34584;BME280;53696;52.738;4.752;2023-05-02T12:43:16;102877.59;;;18.75;57.37
34584;BME280;53696;52.738;4.752;2023-05-02T12:45:45;102874.06;;;18.72;56.17
34584;BME280;53696;52.738;4.752;2023-05-02T12:48:18;102877.66;;;18.68;55.52
34584;BME280;53696;52.738;4.752;2023-05-02T12:50:46;102879.44;;;18.67;54.60
34584;BME280;53696;52.738;4.752;2023-05-02T12:53:14;102878.56;;;18.68;55.16
34584;BME280;53696;52.738;4.752;2023-05-02T12:55:42;102876.78;;;18.64;54.00
34584;BME280;53696;52.738;4.752;2023-05-02T12:58:11;102877.69;;;18.63;54.84
34584;BME280;53696;52.738;4.752;2023-05-02T13:00:41;102877.66;;;18.64;55.49
34584;BME280;53696;52.738;4.752;2023-05-02T13:03:13;102878.56;;;18.62;55.34
34584;BME280;53696;52.738;4.752;2023-05-02T13:05:41;102889.28;;;18.62;55.30
34584;BME280;53696;52.738;4.752;2023-05-02T13:08:09;102894.66;;;18.62;55.36